TAF Text Data
IDs:
Format:
Raw Decoded Include METAR

Data at: 0259 UTC 21 Sep 2021

KPHF 202331Z 2100/2124 08008KT P6SM SCT040 BKN250
  FM210200 09005KT P6SM BKN250
  FM211600 10009KT P6SM BKN050